createdAt,value
2018-02-25T00:01:30.482Z,4.80
2018-02-25T00:03:56.707Z,4.10
2018-02-25T00:06:23.072Z,3.90
2018-02-25T00:08:49.303Z,4.32
2018-02-25T00:11:16.206Z,4.40
2018-02-25T00:13:42.497Z,4.57
2018-02-25T00:16:09.522Z,4.20
2018-02-25T00:18:37.403Z,4.65
2018-02-25T00:21:03.605Z,3.62
2018-02-25T00:23:29.784Z,3.30
2018-02-25T00:25:55.987Z,3.20
2018-02-25T00:28:23.091Z,5.20
2018-02-25T00:30:49.329Z,4.57
2018-02-25T00:33:15.876Z,4.40
2018-02-25T00:35:42.877Z,4.10
2018-02-25T00:38:09.239Z,4.62
2018-02-25T00:40:35.485Z,5.22
2018-02-25T00:43:01.752Z,5.05
2018-02-25T00:45:27.991Z,4.18
2018-02-25T00:47:54.527Z,4.18
2018-02-25T00:50:20.754Z,3.75
2018-02-25T00:52:46.941Z,4.35
2018-02-25T00:55:13.164Z,4.00
2018-02-25T00:57:39.340Z,4.37
2018-02-25T01:00:05.513Z,3.95
2018-02-25T01:02:32.055Z,4.75
2018-02-25T01:04:58.273Z,4.80
2018-02-25T01:07:24.447Z,4.50
2018-02-25T01:09:51.346Z,4.05
2018-02-25T01:12:17.642Z,4.60
2018-02-25T01:14:43.825Z,4.93
2018-02-25T01:17:10.764Z,4.87
2018-02-25T01:19:36.966Z,5.95
2018-02-25T01:22:03.181Z,5.55
2018-02-25T01:24:44.264Z,4.90
2018-02-25T01:27:10.476Z,4.18
2018-02-25T01:29:36.687Z,5.05
2018-02-25T01:32:02.878Z,4.65
2018-02-25T01:34:29.038Z,5.25
2018-02-25T01:36:56.062Z,3.92
2018-02-25T01:39:22.278Z,5.03
2018-02-25T01:41:48.442Z,5.85
2018-02-25T01:44:14.611Z,4.82
2018-02-25T01:46:40.833Z,5.75
2018-02-25T01:49:07.051Z,5.55
2018-02-25T01:51:33.207Z,4.97
2018-02-25T01:53:59.418Z,5.18
2018-02-25T01:56:25.590Z,4.90
2018-02-25T01:58:51.762Z,5.00
2018-02-25T02:01:17.974Z,4.75
2018-02-25T02:03:44.906Z,6.85
2018-02-25T02:06:11.832Z,5.97
2018-02-25T02:08:37.994Z,5.70
2018-02-25T02:11:04.187Z,4.10
2018-02-25T02:13:30.390Z,6.22
2018-02-25T02:15:56.538Z,5.35
2018-02-25T02:18:22.721Z,5.65
2018-02-25T02:20:48.923Z,5.05
2018-02-25T02:23:15.858Z,5.47
2018-02-25T02:25:42.785Z,5.45
2018-02-25T02:28:09.782Z,5.45
2018-02-25T02:30:35.964Z,5.80
2018-02-25T02:33:02.157Z,4.80
2018-02-25T02:35:28.359Z,5.50
2018-02-25T02:37:54.556Z,5.22
2018-02-25T02:40:20.769Z,5.20
2018-02-25T02:42:46.951Z,5.35
2018-02-25T02:45:13.154Z,5.00
2018-02-25T02:47:40.082Z,5.10
2018-02-25T02:50:06.287Z,5.18
2018-02-25T02:52:32.580Z,5.87
2018-02-25T02:54:58.746Z,4.85
2018-02-25T02:57:24.997Z,5.90
2018-02-25T02:59:51.175Z,5.95
2018-02-25T03:02:17.406Z,7.15
2018-02-25T03:04:43.582Z,5.50
2018-02-25T03:07:09.863Z,5.55
2018-02-25T03:09:36.032Z,5.30
2018-02-25T03:12:02.224Z,5.62
2018-02-25T03:14:28.394Z,6.15
2018-02-25T03:16:54.626Z,5.45
2018-02-25T03:19:21.556Z,6.05
2018-02-25T03:21:47.743Z,5.12
2018-02-25T03:24:13.922Z,5.75
2018-02-25T03:26:41.209Z,7.47
2018-02-25T03:29:08.203Z,6.60
2018-02-25T03:31:34.423Z,5.70
2018-02-25T03:34:00.616Z,5.72
2018-02-25T03:36:26.832Z,6.37
2018-02-25T03:38:53.769Z,5.45
2018-02-25T03:41:19.966Z,6.03
2018-02-25T03:43:46.146Z,5.65
2018-02-25T03:46:13.397Z,6.37
2018-02-25T03:48:40.354Z,5.97
2018-02-25T03:51:06.615Z,6.57
2018-02-25T03:53:32.826Z,6.82
2018-02-25T03:55:59.053Z,5.80
2018-02-25T03:58:25.223Z,6.35
2018-02-25T04:00:51.496Z,6.15
2018-02-25T04:03:17.723Z,6.50
2018-02-25T04:05:43.900Z,6.95
2018-02-25T04:08:12.473Z,7.35
2018-02-25T04:10:39.494Z,6.97
2018-02-25T04:13:05.711Z,7.10
2018-02-25T04:15:31.966Z,5.60
2018-02-25T04:17:58.140Z,6.65
2018-02-25T04:20:25.034Z,7.10
2018-02-25T04:22:51.229Z,6.50
2018-02-25T04:25:18.206Z,7.05
2018-02-25T04:27:45.061Z,6.93
2018-02-25T04:30:11.264Z,6.37
2018-02-25T04:32:37.518Z,7.62
2018-02-25T04:35:03.738Z,6.80
2018-02-25T04:37:29.941Z,7.70
2018-02-25T04:39:56.901Z,7.72
2018-02-25T04:42:23.142Z,7.80
2018-02-25T04:44:49.334Z,8.63
2018-02-25T04:47:16.268Z,7.28
2018-02-25T04:49:42.448Z,7.37
2018-02-25T04:52:08.672Z,7.60
2018-02-25T04:54:35.883Z,8.45
2018-02-25T04:57:02.840Z,8.07
2018-02-25T04:59:29.783Z,8.43
2018-02-25T05:01:56.726Z,8.18
2018-02-25T05:04:23.672Z,9.02
2018-02-25T05:06:50.692Z,8.40
2018-02-25T05:09:17.700Z,8.18
2018-02-25T05:11:43.951Z,7.93
2018-02-25T05:14:10.159Z,9.65
2018-02-25T05:16:36.456Z,9.85
2018-02-25T05:19:03.408Z,8.40
2018-02-25T05:21:29.571Z,9.30
2018-02-25T05:23:55.774Z,7.75
2018-02-25T05:26:22.717Z,9.70
2018-02-25T05:28:49.682Z,9.25
2018-02-25T05:31:15.940Z,8.23
2018-02-25T05:33:42.172Z,8.55
2018-02-25T05:36:08.364Z,8.75
2018-02-25T05:38:34.613Z,9.15
2018-02-25T05:41:00.774Z,9.02
2018-02-25T05:43:26.982Z,9.30
2018-02-25T05:45:53.814Z,9.38
2018-02-25T05:48:20.023Z,9.40
2018-02-25T05:50:46.226Z,9.15
2018-02-25T05:53:13.194Z,9.32
2018-02-25T05:55:39.466Z,9.20
2018-02-25T05:58:05.645Z,9.73
2018-02-25T06:00:31.842Z,9.43
2018-02-25T06:02:58.009Z,9.30
2018-02-25T06:05:24.550Z,11.30
2018-02-25T06:07:50.778Z,9.65
2018-02-25T06:10:16.980Z,8.95
2018-02-25T06:12:43.891Z,9.82
2018-02-25T06:15:10.076Z,9.32
2018-02-25T06:17:36.270Z,8.45
2018-02-25T06:20:03.235Z,8.65
2018-02-25T06:22:30.158Z,8.60
2018-02-25T06:24:56.424Z,9.18
2018-02-25T06:27:22.680Z,7.68
2018-02-25T06:29:48.961Z,9.88
2018-02-25T06:32:15.927Z,8.13
2018-02-25T06:34:42.178Z,9.50
2018-02-25T06:37:08.386Z,9.40
2018-02-25T06:39:34.529Z,8.35
2018-02-25T06:42:00.733Z,8.77
2018-02-25T06:44:27.674Z,8.68
2018-02-25T06:46:54.676Z,9.05
2018-02-25T06:49:20.874Z,8.00
2018-02-25T06:51:47.025Z,8.05
2018-02-25T06:54:13.299Z,8.38
2018-02-25T06:56:40.233Z,8.07
2018-02-25T06:59:06.442Z,8.50
2018-02-25T07:01:32.697Z,8.45
2018-02-25T07:03:59.645Z,7.95
2018-02-25T07:06:26.602Z,8.57
2018-02-25T07:08:53.579Z,7.85
2018-02-25T07:11:19.866Z,7.93
2018-02-25T07:13:46.090Z,7.50
2018-02-25T07:16:12.260Z,7.80
2018-02-25T07:18:38.558Z,7.47
2018-02-25T07:21:05.490Z,6.70
2018-02-25T07:23:32.177Z,6.30
2018-02-25T07:25:58.362Z,7.80
2018-02-25T07:28:25.393Z,6.07
2018-02-25T07:30:51.660Z,6.03
2018-02-25T07:33:18.605Z,5.82
2018-02-25T07:35:45.523Z,5.47
2018-02-25T07:38:11.697Z,5.78
2018-02-25T07:40:37.943Z,4.95
2018-02-25T07:43:04.173Z,4.78
2018-02-25T07:45:30.458Z,5.68
2018-02-25T07:47:57.422Z,6.53
2018-02-25T07:50:23.706Z,5.15
2018-02-25T07:52:49.983Z,4.40
2018-02-25T07:55:16.213Z,5.57
2018-02-25T07:57:42.442Z,4.55
2018-02-25T08:00:09.602Z,5.17
2018-02-25T08:02:35.842Z,5.10
2018-02-25T08:05:02.144Z,4.80
2018-02-25T08:07:29.100Z,5.50
2018-02-25T08:09:55.373Z,4.13
2018-02-25T08:12:21.614Z,4.53
2018-02-25T08:14:47.799Z,4.80
2018-02-25T08:17:14.067Z,5.13
2018-02-25T08:19:40.263Z,4.47
2018-02-25T08:22:06.446Z,4.60
2018-02-25T08:24:32.720Z,4.33
2018-02-25T08:26:58.878Z,4.50
2018-02-25T08:29:25.166Z,4.30
2018-02-25T08:31:57.494Z,5.20
2018-02-25T08:34:25.229Z,6.03
2018-02-25T08:36:51.423Z,5.50
2018-02-25T08:39:17.644Z,5.37
2018-02-25T08:41:44.633Z,4.40
2018-02-25T08:44:10.825Z,4.73
2018-02-25T08:46:37.154Z,4.43
2018-02-25T08:49:03.424Z,4.50
2018-02-25T08:51:29.627Z,4.57
2018-02-25T08:53:56.934Z,4.50
2018-02-25T08:56:24.525Z,4.43
2018-02-25T08:58:50.797Z,5.45
2018-02-25T09:01:17.023Z,4.07
2018-02-25T09:03:43.295Z,4.53
2018-02-25T09:06:10.283Z,4.12
2018-02-25T09:08:36.538Z,4.40
2018-02-25T09:11:02.748Z,4.15
2018-02-25T09:13:28.958Z,5.20
2018-02-25T09:15:55.121Z,4.53
2018-02-25T09:18:21.372Z,4.82
2018-02-25T09:20:47.579Z,4.60
2018-02-25T09:23:13.822Z,4.47
2018-02-25T09:25:40.036Z,4.70
2018-02-25T09:28:06.231Z,4.80
2018-02-25T09:30:32.457Z,5.05
2018-02-25T09:32:58.677Z,4.65
2018-02-25T09:35:24.927Z,4.93
2018-02-25T09:37:51.155Z,4.85
2018-02-25T09:40:17.415Z,6.05
2018-02-25T09:42:43.681Z,5.47
2018-02-25T09:45:10.617Z,5.23
2018-02-25T09:47:36.815Z,5.13
2018-02-25T09:50:03.130Z,5.40
2018-02-25T09:52:29.339Z,5.83
2018-02-25T09:54:55.574Z,5.77
2018-02-25T09:57:21.789Z,5.30
2018-02-25T09:59:48.625Z,5.60
2018-02-25T10:02:14.876Z,5.13
2018-02-25T10:04:41.106Z,5.67
2018-02-25T10:07:07.341Z,5.83
2018-02-25T10:09:33.536Z,4.87
2018-02-25T10:12:00.481Z,5.83
2018-02-25T10:14:27.141Z,5.53
2018-02-25T10:16:53.480Z,5.57
2018-02-25T10:19:19.748Z,5.53
2018-02-25T10:21:46.336Z,6.13
2018-02-25T10:24:15.786Z,5.80
2018-02-25T10:26:42.057Z,6.90
2018-02-25T10:29:08.749Z,6.60
2018-02-25T10:31:35.368Z,5.47
2018-02-25T10:34:01.880Z,4.93
2018-02-25T10:36:29.011Z,5.70
2018-02-25T10:38:55.988Z,6.40
2018-02-25T10:41:22.276Z,6.70
2018-02-25T10:43:48.536Z,6.17
2018-02-25T10:46:15.582Z,5.80
2018-02-25T10:48:41.780Z,5.77
2018-02-25T10:51:08.033Z,6.37
2018-02-25T10:53:35.143Z,5.50
2018-02-25T10:56:01.440Z,6.63
2018-02-25T10:58:27.726Z,5.60
2018-02-25T11:01:00.072Z,6.33
2018-02-25T11:03:26.325Z,6.40
2018-02-25T11:05:52.556Z,5.83
2018-02-25T11:08:19.592Z,6.90
2018-02-25T11:10:45.820Z,6.10
2018-02-25T11:13:12.075Z,6.23
2018-02-25T11:15:39.053Z,6.70
2018-02-25T11:18:05.406Z,4.83
2018-02-25T11:20:32.444Z,5.23
2018-02-25T11:22:58.708Z,6.33
2018-02-25T11:25:25.134Z,4.63
2018-02-25T11:28:06.334Z,5.00
2018-02-25T11:30:32.603Z,4.60
2018-02-25T11:32:58.808Z,4.27
2018-02-25T11:35:25.807Z,5.37
2018-02-25T11:37:51.989Z,5.07
2018-02-25T11:40:18.620Z,6.17
2018-02-25T11:42:45.257Z,4.60
2018-02-25T11:45:11.455Z,4.00
2018-02-25T11:47:38.020Z,6.13
2018-02-25T11:50:04.240Z,5.00
2018-02-25T11:52:31.668Z,4.60
2018-02-25T11:54:58.309Z,4.80
2018-02-25T11:57:26.024Z,5.47
2018-02-25T11:59:53.093Z,4.47
2018-02-25T12:02:20.082Z,4.03
2018-02-25T12:04:46.254Z,5.30
2018-02-25T12:07:14.226Z,4.87
2018-02-25T12:09:43.250Z,5.83
2018-02-25T12:12:10.661Z,3.80
2018-02-25T12:14:37.869Z,6.03
2018-02-25T12:17:05.828Z,3.90
2018-02-25T12:19:37.618Z,4.40
2018-02-25T12:22:03.922Z,3.80
2018-02-25T12:24:30.560Z,4.80
2018-02-25T12:26:56.954Z,4.50
2018-02-25T12:29:23.911Z,3.83
2018-02-25T12:31:50.140Z,4.03
2018-02-25T12:34:17.183Z,3.30
2018-02-25T12:36:44.397Z,3.80
2018-02-25T12:39:11.562Z,4.30
2018-02-25T12:41:37.894Z,3.63
2018-02-25T12:44:04.094Z,4.63
2018-02-25T12:46:30.321Z,4.03
2018-02-25T12:48:56.663Z,3.83
2018-02-25T12:51:23.905Z,4.13
2018-02-25T12:53:50.940Z,3.67
2018-02-25T12:56:17.160Z,4.20
2018-02-25T12:58:43.387Z,3.90
2018-02-25T13:01:09.566Z,4.60
2018-02-25T13:03:35.793Z,3.37
2018-02-25T13:06:02.033Z,4.00
2018-02-25T13:08:29.006Z,3.33
2018-02-25T13:10:55.222Z,3.13
2018-02-25T13:13:22.317Z,3.50
2018-02-25T13:15:48.537Z,3.37
2018-02-25T13:18:14.891Z,3.80
2018-02-25T13:20:41.110Z,3.53
2018-02-25T13:23:07.337Z,3.40
2018-02-25T13:25:33.580Z,3.50
2018-02-25T13:27:59.961Z,3.70
2018-02-25T13:30:26.297Z,3.80
2018-02-25T13:42:43.270Z,3.90
2018-02-25T13:45:09.513Z,3.73
2018-02-25T13:47:35.756Z,2.83
2018-02-25T13:50:02.010Z,3.77
2018-02-25T13:52:28.228Z,3.13
2018-02-25T13:54:54.432Z,3.17
2018-02-25T13:57:20.693Z,3.67
2018-02-25T13:59:46.907Z,3.23
2018-02-25T14:02:13.128Z,3.90
2018-02-25T14:04:39.344Z,3.67
2018-02-25T14:07:05.687Z,3.90
2018-02-25T14:09:31.930Z,3.60
2018-02-25T14:11:58.135Z,3.13
2018-02-25T14:14:24.372Z,4.57
2018-02-25T14:16:50.576Z,2.97
2018-02-25T14:19:17.569Z,3.10
2018-02-25T14:21:43.972Z,2.90
2018-02-25T14:24:10.382Z,2.77
2018-02-25T14:26:37.704Z,3.43
2018-02-25T14:29:03.989Z,3.70
2018-02-25T14:31:30.210Z,3.40
2018-02-25T14:33:56.440Z,3.90
2018-02-25T14:36:22.689Z,3.00
2018-02-25T14:38:48.925Z,3.50
2018-02-25T14:41:15.123Z,3.33
2018-02-25T14:43:41.343Z,3.43
2018-02-25T14:46:08.315Z,3.13
2018-02-25T14:48:34.506Z,3.97
2018-02-25T14:51:00.689Z,3.73
2018-02-25T14:53:27.012Z,3.60
2018-02-25T14:55:54.006Z,3.30
2018-02-25T14:58:20.224Z,3.30
2018-02-25T15:00:46.411Z,3.10
2018-02-25T15:03:12.669Z,3.37
2018-02-25T15:05:38.844Z,2.97
2018-02-25T15:08:05.862Z,3.00
2018-02-25T15:10:32.077Z,3.53
2018-02-25T15:12:59.096Z,2.90
2018-02-25T15:15:25.315Z,3.93
2018-02-25T15:17:51.559Z,3.10
2018-02-25T15:20:18.469Z,3.70
2018-02-25T15:22:45.409Z,3.20
2018-02-25T15:25:12.393Z,3.90
2018-02-25T15:27:38.643Z,3.67
2018-02-25T15:30:04.858Z,3.17
2018-02-25T15:32:31.112Z,3.50
2018-02-25T15:34:57.323Z,3.60
2018-02-25T15:37:23.553Z,3.50
2018-02-25T15:39:49.831Z,3.30
2018-02-25T15:42:16.862Z,3.08
2018-02-25T15:44:43.265Z,4.22
2018-02-25T15:47:09.498Z,3.28
2018-02-25T15:49:35.800Z,3.60
2018-02-25T15:52:02.756Z,3.87
2018-02-25T15:54:29.346Z,3.72
2018-02-25T15:56:56.379Z,2.92
2018-02-25T15:59:22.724Z,3.40
2018-02-25T16:01:49.046Z,2.95
2018-02-25T16:04:15.267Z,3.45
2018-02-25T16:06:41.555Z,3.50
2018-02-25T16:09:07.739Z,2.37
2018-02-25T16:11:34.090Z,3.20
2018-02-25T16:14:01.095Z,3.00
2018-02-25T16:16:27.279Z,3.50
2018-02-25T16:18:53.558Z,3.12
2018-02-25T16:21:19.999Z,3.45
2018-02-25T16:23:46.213Z,3.35
2018-02-25T16:26:12.447Z,3.40
2018-02-25T16:28:38.856Z,3.08
2018-02-25T16:31:05.084Z,3.72
2018-02-25T16:33:31.279Z,3.83
2018-02-25T16:35:58.218Z,3.45
2018-02-25T16:38:25.181Z,3.95
2018-02-25T16:40:51.411Z,3.15
2018-02-25T16:43:17.668Z,3.40
2018-02-25T16:45:43.881Z,3.80
2018-02-25T16:48:10.091Z,3.85
2018-02-25T16:50:37.130Z,3.92
2018-02-25T16:53:04.126Z,3.75
2018-02-25T16:55:30.453Z,4.30
2018-02-25T16:57:56.685Z,3.65
2018-02-25T17:00:23.430Z,3.75
2018-02-25T17:02:49.687Z,4.00
2018-02-25T17:05:15.996Z,3.72
2018-02-25T17:07:42.274Z,3.90
2018-02-25T17:10:09.235Z,4.82
2018-02-25T17:12:35.576Z,4.75
2018-02-25T17:15:01.773Z,4.07
2018-02-25T17:17:28.886Z,3.70
2018-02-25T17:19:55.120Z,3.60
2018-02-25T17:22:21.460Z,3.42
2018-02-25T17:24:47.736Z,3.95
2018-02-25T17:27:13.998Z,4.25
2018-02-25T17:29:42.096Z,3.75
2018-02-25T17:32:08.778Z,3.72
2018-02-25T17:34:35.087Z,3.78
2018-02-25T17:37:02.054Z,3.10
2018-02-25T17:39:28.350Z,5.40
2018-02-25T17:41:56.088Z,3.12
2018-02-25T17:44:23.185Z,3.87
2018-02-25T17:46:50.709Z,2.95
2018-02-25T17:49:17.025Z,3.00
2018-02-25T17:51:44.095Z,3.08
2018-02-25T17:54:10.452Z,3.05
2018-02-25T17:56:37.545Z,2.70
2018-02-25T17:59:03.898Z,3.08
2018-02-25T18:01:30.827Z,3.33
2018-02-25T18:03:57.995Z,2.67
2018-02-25T18:06:24.250Z,3.45
2018-02-25T18:08:50.514Z,3.95
2018-02-25T18:11:16.718Z,2.70
2018-02-25T18:13:43.740Z,2.90
2018-02-25T18:16:10.329Z,3.05
2018-02-25T18:18:37.310Z,3.37
2018-02-25T18:21:03.993Z,3.55
2018-02-25T18:23:31.217Z,3.30
2018-02-25T18:25:58.540Z,2.67
2018-02-25T18:28:24.843Z,3.15
2018-02-25T18:30:51.096Z,3.50
2018-02-25T18:33:17.408Z,3.05
2018-02-25T18:35:43.669Z,2.90
2018-02-25T18:38:09.895Z,3.15
2018-02-25T18:40:36.144Z,3.42
2018-02-25T18:43:02.482Z,2.50
2018-02-25T18:45:28.722Z,1.95
2018-02-25T18:47:55.039Z,2.70
2018-02-25T18:50:21.919Z,2.90
2018-02-25T18:52:48.157Z,2.28
2018-02-25T18:55:14.439Z,2.97
2018-02-25T18:57:40.719Z,2.53
2018-02-25T19:00:07.087Z,2.20
2018-02-25T19:02:33.428Z,2.58
2018-02-25T19:04:59.669Z,3.60
2018-02-25T19:07:25.928Z,2.58
2018-02-25T19:09:52.924Z,3.15
2018-02-25T19:12:19.154Z,2.65
2018-02-25T19:14:45.366Z,2.53
2018-02-25T19:17:11.660Z,2.80
2018-02-25T19:19:38.645Z,2.60
2018-02-25T19:22:04.984Z,2.37
2018-02-25T19:24:31.238Z,2.50
2018-02-25T19:26:57.489Z,3.10
2018-02-25T19:29:24.580Z,2.95
2018-02-25T19:31:50.962Z,2.85
2018-02-25T19:34:18.286Z,3.37
2018-02-25T19:36:50.671Z,2.95
2018-02-25T19:39:23.000Z,2.55
2018-02-25T19:41:52.183Z,3.90
2018-02-25T19:44:19.201Z,3.10
2018-02-25T19:46:45.601Z,3.12
2018-02-25T19:49:11.880Z,2.42
2018-02-25T19:51:38.155Z,2.25
2018-02-25T19:54:04.373Z,3.58
2018-02-25T19:56:30.579Z,3.03
2018-02-25T19:58:57.591Z,3.33
2018-02-25T20:01:23.793Z,2.40
2018-02-25T20:03:50.021Z,2.62
2018-02-25T20:06:16.202Z,2.37
2018-02-25T20:08:42.675Z,3.15
2018-02-25T20:11:08.997Z,2.55
2018-02-25T20:13:35.262Z,3.05
2018-02-25T20:16:02.321Z,3.30
2018-02-25T20:18:28.600Z,2.25
2018-02-25T20:20:54.829Z,3.08
2018-02-25T20:23:21.074Z,3.37
2018-02-25T20:25:47.386Z,3.25
2018-02-25T20:28:14.338Z,2.67
2018-02-25T20:30:40.568Z,3.40
2018-02-25T20:33:06.919Z,3.37
2018-02-25T20:35:33.293Z,3.08
2018-02-25T20:37:59.480Z,3.30
2018-02-25T20:40:25.790Z,3.28
2018-02-25T20:42:52.043Z,3.00
2018-02-25T20:45:18.306Z,3.33
2018-02-25T20:47:44.543Z,3.22
2018-02-25T20:50:11.751Z,3.87
2018-02-25T20:52:38.778Z,3.72
2018-02-25T20:55:05.844Z,2.83
2018-02-25T20:57:32.027Z,2.65
2018-02-25T20:59:58.273Z,3.40
2018-02-25T21:02:25.222Z,3.22
2018-02-25T21:04:52.158Z,4.00
2018-02-25T21:07:19.518Z,3.40
2018-02-25T21:09:46.701Z,2.70
2018-02-25T21:12:13.131Z,3.25
2018-02-25T21:14:39.330Z,2.80
2018-02-25T21:17:06.305Z,2.83
2018-02-25T21:19:32.560Z,3.30
2018-02-25T21:21:58.870Z,3.35
2018-02-25T21:24:25.151Z,3.33
2018-02-25T21:26:51.342Z,3.10
2018-02-25T21:29:17.583Z,3.10
2018-02-25T21:31:43.857Z,2.60
2018-02-25T21:34:11.824Z,3.05
2018-02-25T21:36:38.783Z,2.92
2018-02-25T21:39:05.746Z,3.70
2018-02-25T21:41:32.011Z,2.90
2018-02-25T21:43:58.268Z,3.00
2018-02-25T21:46:25.254Z,3.30
2018-02-25T21:48:51.512Z,3.45
2018-02-25T21:51:17.747Z,2.90
2018-02-25T21:53:43.997Z,3.12
2018-02-25T21:56:16.351Z,3.28
2018-02-25T21:58:48.671Z,3.05
2018-02-25T22:01:20.973Z,3.45
2018-02-25T22:03:47.287Z,3.22
2018-02-25T22:06:14.429Z,2.80
2018-02-25T22:08:40.672Z,2.97
2018-02-25T22:11:07.004Z,3.12
2018-02-25T22:13:33.339Z,3.67
2018-02-25T22:15:59.593Z,3.20
2018-02-25T22:18:26.629Z,3.75
2018-02-25T22:20:52.823Z,3.25
2018-02-25T22:23:19.901Z,4.25
2018-02-25T22:25:47.708Z,3.50
2018-02-25T22:28:13.868Z,3.40
2018-02-25T22:30:40.310Z,2.75
2018-02-25T22:33:13.559Z,3.35
2018-02-25T22:35:40.156Z,3.85
2018-02-25T22:38:06.378Z,3.58
2018-02-25T22:40:32.646Z,3.35
2018-02-25T22:42:58.896Z,3.78
2018-02-25T22:45:28.049Z,3.40
2018-02-25T22:47:54.330Z,3.20
2018-02-25T22:50:21.400Z,3.95
2018-02-25T22:52:48.008Z,3.75
2018-02-25T22:55:14.744Z,3.25
2018-02-25T22:57:41.682Z,4.22
2018-02-25T23:00:08.895Z,3.00
2018-02-25T23:02:35.124Z,3.75
2018-02-25T23:05:01.991Z,3.30
2018-02-25T23:07:29.079Z,3.62
2018-02-25T23:09:56.129Z,4.32
2018-02-25T23:12:27.077Z,3.45
2018-02-25T23:15:01.255Z,3.40
2018-02-25T23:17:27.648Z,3.67
2018-02-25T23:19:58.133Z,3.33
2018-02-25T23:22:25.318Z,3.80
2018-02-25T23:24:51.640Z,3.47
2018-02-25T23:27:18.768Z,3.25
2018-02-25T23:29:44.977Z,3.55
2018-02-25T23:32:11.174Z,3.53
2018-02-25T23:34:37.387Z,3.28
2018-02-25T23:37:04.349Z,3.22
2018-02-25T23:39:30.537Z,3.80
2018-02-25T23:41:57.634Z,3.70
2018-02-25T23:44:23.827Z,3.33
2018-02-25T23:46:50.097Z,3.50
2018-02-25T23:49:16.326Z,3.87
2018-02-25T23:51:42.555Z,4.00
2018-02-25T23:54:08.768Z,4.10
2018-02-25T23:56:34.971Z,3.75
2018-02-25T23:59:01.913Z,4.12
